Time;durP1;ratioP1;P1;durP2;ratioP2;P2;SDS_P1;SDS_P2;PMS_P1;PMS_P2;Temp;Humidity;BMP_temperature;BMP_pressure;BME280_temperature;BME280_humidity;BME280_pressure;Samples;Min_cycle;Max_cycle;Signal;HPM_P1;HPM_P2
2021/11/22 00:00:15;;;;;;;19.80;14.37;;;;;;;12.35;100.00;99589.44;1766717;81;21059;-64
2021/11/22 00:02:42;;;;;;;17.87;13.60;;;;;;;12.03;100.00;99599.05;1754319;80;21696;-70
2021/11/22 00:05:11;;;;;;;19.63;14.10;;;;;;;12.27;100.00;99592.79;1766585;81;21245;-64
2021/11/22 00:07:38;;;;;;;21.27;14.47;;;;;;;12.80;100.00;99597.66;1754739;81;21184;-65
2021/11/22 00:10:08;;;;;;;21.20;15.23;;;;;;;13.29;100.00;99598.66;1766580;81;21202;-69
2021/11/22 00:12:37;;;;;;;19.10;15.33;;;;;;;12.33;100.00;99603.21;1765830;81;21242;-66
2021/11/22 00:15:11;;;;;;;19.60;15.43;;;;;;;12.68;100.00;99597.55;1766744;81;22396;-64
2021/11/22 00:17:38;;;;;;;19.57;14.47;;;;;;;13.21;100.00;99586.62;1754974;81;21504;-66
2021/11/22 00:20:09;;;;;;;18.10;13.07;;;;;;;11.60;100.00;99607.94;1767038;81;21140;-68
2021/11/22 00:22:38;;;;;;;17.47;13.57;;;;;;;11.18;100.00;99610.03;1765644;81;21187;-64
2021/11/22 00:25:07;;;;;;;21.63;15.07;;;;;;;11.26;100.00;99604.59;1766820;81;21242;-64
2021/11/22 00:27:35;;;;;;;24.83;14.40;;;;;;;11.21;100.00;99601.77;1766444;81;21709;-64
2021/11/22 00:30:06;;;;;;;20.57;14.98;;;;;;;11.26;100.00;99605.09;1766393;80;21469;-77
2021/11/22 00:32:45;;;;;;;17.37;12.60;;;;;;;11.34;100.00;99599.16;1764675;80;21104;-65
2021/11/22 00:35:14;;;;;;;17.62;13.40;;;;;;;8.51;100.00;99620.23;1735824;80;21144;-66
2021/11/22 00:37:44;;;;;;;17.23;13.15;;;;;;;8.39;100.00;99624.81;1766846;79;20891;-64
2021/11/22 00:40:12;;;;;;;19.40;13.00;;;;;;;8.28;100.00;99608.69;1765870;81;21086;-79
2021/11/22 00:42:45;;;;;;;14.87;11.70;;;;;;;8.45;100.00;99606.70;1755737;81;22461;-65
2021/11/22 00:45:13;;;;;;;19.02;13.18;;;;;;;8.62;100.00;99599.95;1766687;81;21233;-67
2021/11/22 00:47:41;;;;;;;19.77;12.68;;;;;;;8.83;100.00;99605.65;1766937;81;21115;-64
2021/11/22 00:50:09;;;;;;;17.87;13.10;;;;;;;8.66;100.00;99608.98;1765641;81;21497;-80
2021/11/22 00:52:36;;;;;;;16.13;11.60;;;;;;;8.95;100.00;99612.73;1766177;81;21113;-65
2021/11/22 00:55:04;;;;;;;15.90;12.33;;;;;;;9.22;100.00;99622.03;1766585;81;21118;-65
2021/11/22 00:57:32;;;;;;;17.80;13.75;;;;;;;9.65;100.00;99615.38;1766601;81;21007;-65
2021/11/22 00:59:59;;;;;;;17.52;12.63;;;;;;;9.91;100.00;99615.50;1766176;81;20951;-66
2021/11/22 01:02:27;;;;;;;17.82;13.30;;;;;;;9.90;100.00;99612.60;1765825;81;21060;-64
2021/11/22 01:04:54;;;;;;;17.75;11.93;;;;;;;9.87;100.00;99605.67;1766846;80;21500;-64
2021/11/22 01:07:22;;;;;;;18.53;12.97;;;;;;;10.29;100.00;99611.66;1766497;81;21061;-64
2021/11/22 01:09:51;;;;;;;18.15;13.05;;;;;;;10.45;100.00;99602.98;1766264;81;21326;-75
2021/11/22 01:12:18;;;;;;;18.55;12.68;;;;;;;10.26;100.00;99610.23;1765940;81;20986;-66
2021/11/22 01:14:45;;;;;;;19.42;11.63;;;;;;;10.41;100.00;99606.96;1766548;81;21064;-64
2021/11/22 01:17:15;;;;;;;18.35;12.93;;;;;;;10.40;100.00;99611.87;1766572;81;21072;-68
2021/11/22 01:19:42;;;;;;;18.60;13.05;;;;;;;10.39;100.00;99608.98;1766350;81;20931;-70
2021/11/22 01:22:09;;;;;;;16.90;12.20;;;;;;;9.94;100.00;99620.33;1766137;81;20990;-64
2021/11/22 01:24:36;;;;;;;17.30;11.40;;;;;;;9.84;100.00;99622.48;1765911;81;21595;-64
2021/11/22 01:27:06;;;;;;;16.10;11.48;;;;;;;9.80;100.00;99626.97;1766393;81;21154;-64
2021/11/22 01:29:33;;;;;;;16.45;11.73;;;;;;;10.13;100.00;99626.61;1766611;81;21140;-65
2021/11/22 01:32:01;;;;;;;16.32;11.38;;;;;;;9.96;100.00;99622.25;1765885;81;20879;-65
2021/11/22 01:34:29;;;;;;;14.90;10.78;;;;;;;10.24;100.00;99628.65;1765864;81;22465;-64
2021/11/22 01:36:57;;;;;;;21.03;12.23;;;;;;;10.32;100.00;99629.00;1766755;81;21001;-64
2021/11/22 01:39:24;;;;;;;19.32;12.73;;;;;;;10.11;100.00;99629.09;1766510;81;21301;-65
2021/11/22 01:41:52;;;;;;;17.92;12.03;;;;;;;10.24;100.00;99629.95;1766262;81;21775;-76
2021/11/22 01:44:19;;;;;;;18.50;11.83;;;;;;;9.75;100.00;99628.86;1766186;79;20996;-77
2021/11/22 01:46:48;;;;;;;18.70;11.83;;;;;;;9.60;100.00;99635.48;1766416;81;20911;-65
2021/11/22 01:49:18;;;;;;;17.40;12.18;;;;;;;9.01;100.00;99632.77;1766427;81;21018;-66
2021/11/22 01:51:46;;;;;;;14.15;11.03;;;;;;;9.02;100.00;99647.89;1766680;81;21077;-66
2021/11/22 01:54:16;;;;;;;15.18;11.65;;;;;;;8.85;100.00;99646.53;1766460;81;21084;-65
2021/11/22 01:56:45;;;;;;;19.05;12.68;;;;;;;8.97;100.00;99644.53;1765769;81;20990;-65
2021/11/22 01:59:16;;;;;;;17.17;11.30;;;;;;;8.95;100.00;99641.83;1766642;81;21057;-65
2021/11/22 02:01:44;;;;;;;17.57;12.37;;;;;;;9.15;100.00;99635.48;1766659;81;21473;-65
2021/11/22 02:04:11;;;;;;;17.00;12.43;;;;;;;9.45;100.00;99628.28;1766326;80;20927;-74
2021/11/22 02:06:38;;;;;;;19.35;12.90;;;;;;;9.68;100.00;99632.72;1754041;81;22496;-65
2021/11/22 02:09:05;;;;;;;18.57;13.60;;;;;;;9.94;100.00;99625.53;1766566;81;21591;-64
2021/11/22 02:11:34;;;;;;;18.32;13.30;;;;;;;9.90;100.00;99632.12;1766544;81;21015;-65
2021/11/22 02:14:03;;;;;;;20.50;12.93;;;;;;;10.13;100.00;99647.94;1765787;81;21240;-67
2021/11/22 02:16:32;;;;;;;17.77;13.05;;;;;;;10.44;100.00;99651.37;1765935;81;21027;-66
2021/11/22 02:18:59;;;;;;;18.87;14.00;;;;;;;9.58;100.00;99652.27;1766596;81;21497;-64
2021/11/22 02:21:27;;;;;;;18.75;14.05;;;;;;;9.85;100.00;99657.95;1751634;81;21644;-64
2021/11/22 02:23:55;;;;;;;19.48;13.08;;;;;;;9.03;100.00;99661.19;1766249;81;20995;-70
2021/11/22 02:26:22;;;;;;;19.15;13.85;;;;;;;9.12;100.00;99668.35;1766249;81;21049;-65
2021/11/22 02:28:50;;;;;;;20.68;13.32;;;;;;;9.43;100.00;99671.88;1765975;81;20926;-70
2021/11/22 02:31:17;;;;;;;17.02;13.00;;;;;;;9.36;100.00;99666.66;1766334;81;21136;-64
2021/11/22 02:33:45;;;;;;;21.45;14.70;;;;;;;9.31;100.00;99670.80;1766257;81;20986;-66
2021/11/22 02:36:13;;;;;;;21.27;15.50;;;;;;;9.43;100.00;99664.08;1765938;81;20935;-65
2021/11/22 02:38:41;;;;;;;21.68;14.30;;;;;;;9.28;100.00;99664.20;1756359;81;21563;-69
2021/11/22 02:41:08;;;;;;;18.75;13.22;;;;;;;9.00;100.00;99664.95;1765996;81;21015;-65
2021/11/22 02:43:39;;;;;;;18.25;13.20;;;;;;;8.85;100.00;99657.73;1766076;81;21151;-64
2021/11/22 02:46:06;;;;;;;21.75;15.50;;;;;;;9.21;100.00;99664.14;1766031;81;20991;-65
2021/11/22 02:48:34;;;;;;;18.87;13.40;;;;;;;9.65;100.00;99666.92;1766535;81;21085;-76
2021/11/22 02:51:01;;;;;;;18.25;13.70;;;;;;;9.96;100.00;99663.08;1766069;81;21084;-65
2021/11/22 02:53:30;;;;;;;17.07;13.18;;;;;;;9.57;100.00;99667.58;1766547;81;20955;-64
2021/11/22 02:55:59;;;;;;;19.32;14.10;;;;;;;9.48;100.00;99653.42;1765747;81;21131;-65
2021/11/22 02:58:26;;;;;;;17.45;14.47;;;;;;;9.62;100.00;99648.28;1766391;81;21054;-66
2021/11/22 03:00:53;;;;;;;18.60;13.50;;;;;;;9.58;100.00;99650.47;1766083;81;20995;-64
2021/11/22 03:03:30;;;;;;;18.82;13.50;;;;;;;9.80;100.00;99656.40;1766353;81;22169;-64
2021/11/22 03:06:11;;;;;;;19.50;13.83;;;;;;;10.37;100.00;99657.86;1777249;80;21010;-64
2021/11/22 03:08:40;;;;;;;19.67;14.63;;;;;;;10.67;100.00;99643.20;1765392;80;21066;-64
2021/11/22 03:11:08;;;;;;;20.82;14.68;;;;;;;10.75;100.00;99643.50;1777626;79;22251;-64
2021/11/22 03:13:35;;;;;;;18.02;13.28;;;;;;;10.27;100.00;99652.23;1776466;80;21056;-65
2021/11/22 03:16:04;;;;;;;20.77;14.40;;;;;;;10.30;100.00;99651.02;1777643;80;21556;-64
2021/11/22 03:18:31;;;;;;;21.70;14.03;;;;;;;10.56;100.00;99639.87;1777604;80;21737;-77
2021/11/22 03:20:59;;;;;;;20.82;14.85;;;;;;;11.11;100.00;99634.01;1777048;80;21268;-76
2021/11/22 03:23:27;;;;;;;21.27;14.80;;;;;;;10.88;100.00;99644.84;1777364;80;21539;-65
2021/11/22 03:25:54;;;;;;;20.90;15.23;;;;;;;11.01;100.00;99645.33;1777721;80;21291;-65
2021/11/22 03:28:24;;;;;;;19.90;15.03;;;;;;;10.91;100.00;99658.28;1777570;80;21069;-64
2021/11/22 03:30:51;;;;;;;21.87;14.77;;;;;;;10.98;100.00;99651.74;1776791;79;21453;-77
2021/11/22 03:33:19;;;;;;;20.97;14.40;;;;;;;11.22;100.00;99646.95;1777644;80;21588;-67
2021/11/22 03:35:50;;;;;;;22.17;15.00;;;;;;;11.21;100.00;99634.38;1770626;80;21275;-64
2021/11/22 03:38:17;;;;;;;22.50;16.17;;;;;;;10.34;100.00;99642.64;1773392;80;21271;-65
2021/11/22 03:40:47;;;;;;;22.02;15.38;;;;;;;9.84;100.00;99662.03;1777039;80;20968;-75
2021/11/22 03:43:15;;;;;;;20.53;15.23;;;;;;;9.83;100.00;99669.53;1777653;80;22091;-64
2021/11/22 03:45:46;;;;;;;23.87;16.67;;;;;;;10.25;100.00;99667.25;1777654;80;21151;-64
2021/11/22 03:48:13;;;;;;;21.25;14.95;;;;;;;10.17;100.00;99677.81;1777875;80;21318;-65
2021/11/22 03:50:41;;;;;;;23.92;17.40;;;;;;;10.17;100.00;99673.91;1776748;80;22415;-72
2021/11/22 03:53:08;;;;;;;20.47;15.60;;;;;;;10.31;100.00;99676.90;1777657;80;21397;-64
2021/11/22 03:55:36;;;;;;;20.37;15.25;;;;;;;10.60;100.00;99670.55;1777353;80;21306;-65
2021/11/22 03:58:03;;;;;;;25.85;16.20;;;;;;;10.50;100.00;99667.53;1758034;80;21068;-64
2021/11/22 04:00:31;;;;;;;22.87;16.53;;;;;;;10.97;100.00;99659.27;1767448;79;21186;-77
2021/11/22 04:03:00;;;;;;;22.15;15.53;;;;;;;10.58;100.00;99674.37;1696711;83;21824;-66
2021/11/22 04:05:27;;;;;;;21.90;15.00;;;;;;;11.00;100.00;99677.13;1694679;84;22380;-63
2021/11/22 04:07:55;;;;;;;24.67;14.13;;;;;;;10.88;100.00;99684.75;1696333;84;21739;-65
2021/11/22 04:10:23;;;;;;;21.67;16.27;;;;;;;9.88;100.00;99688.77;1696353;84;21302;-65
2021/11/22 04:12:50;;;;;;;21.87;16.07;;;;;;;9.76;100.00;99690.31;1694575;84;21318;-78
2021/11/22 04:15:17;;;;;;;20.03;14.57;;;;;;;10.18;100.00;99687.22;1694847;84;21443;-65
2021/11/22 04:17:45;;;;;;;22.30;15.87;;;;;;;10.41;100.00;99690.34;1675486;84;21207;-67
2021/11/22 04:20:14;;;;;;;23.27;15.20;;;;;;;10.55;100.00;99691.70;1684720;84;21813;-67
2021/11/22 04:22:41;;;;;;;21.70;15.53;;;;;;;11.00;100.00;99688.07;1694467;84;21170;-64
2021/11/22 04:25:08;;;;;;;21.73;14.77;;;;;;;11.50;100.00;99684.04;1695402;84;21216;-66
2021/11/22 04:27:36;;;;;;;22.30;15.40;;;;;;;11.30;100.00;99689.28;1695652;84;21352;-65
2021/11/22 04:30:06;;;;;;;25.17;17.93;;;;;;;11.44;100.00;99690.88;1695895;84;21294;-67
2021/11/22 04:32:35;;;;;;;22.45;16.52;;;;;;;11.61;100.00;99697.78;1675497;84;21333;-65
2021/11/22 04:35:05;;;;;;;21.20;15.93;;;;;;;12.03;100.00;99694.91;1669186;84;22083;-73
2021/11/22 04:37:33;;;;;;;20.25;14.85;;;;;;;12.22;100.00;99700.55;1694542;84;21615;-64
2021/11/22 04:40:01;;;;;;;24.30;16.63;;;;;;;11.48;100.00;99693.89;1694210;84;20905;-78
2021/11/22 04:42:30;;;;;;;22.85;17.48;;;;;;;10.72;100.00;99712.50;1694889;84;22490;-68
2021/11/22 04:44:57;;;;;;;23.53;16.40;;;;;;;10.48;100.00;99715.12;1700623;84;21554;-73
2021/11/22 04:47:25;;;;;;;26.37;18.03;;;;;;;10.90;100.00;99712.72;1697465;84;21704;-64
2021/11/22 04:49:53;;;;;;;23.70;16.30;;;;;;;11.19;100.00;99711.55;1694183;84;21271;-76
2021/11/22 04:52:21;;;;;;;23.20;16.67;;;;;;;11.33;100.00;99714.18;1699996;84;22290;-64
2021/11/22 04:54:48;;;;;;;23.33;16.90;;;;;;;11.44;100.00;99718.80;1699027;83;21122;-80
2021/11/22 04:57:15;;;;;;;24.20;16.80;;;;;;;11.30;100.00;99720.59;1694226;84;21237;-67
2021/11/22 04:59:43;;;;;;;25.80;16.90;;;;;;;11.48;100.00;99721.77;1694797;84;21459;-67
2021/11/22 05:02:10;;;;;;;26.33;17.53;;;;;;;11.38;100.00;99725.60;1697937;83;21294;-66
2021/11/22 05:04:37;;;;;;;24.63;17.83;;;;;;;11.28;100.00;99725.70;1683082;84;21108;-64
2021/11/22 05:07:08;;;;;;;25.57;17.23;;;;;;;11.11;100.00;99740.95;1692368;82;21320;-68
2021/11/22 05:09:35;;;;;;;24.63;16.97;;;;;;;11.01;100.00;99742.63;1676721;83;21542;-66
2021/11/22 05:12:03;;;;;;;22.95;16.50;;;;;;;11.50;100.00;99740.66;1710386;83;22551;-64
2021/11/22 05:14:31;;;;;;;25.17;17.27;;;;;;;11.84;100.00;99739.65;1712550;82;20971;-65
2021/11/22 05:16:59;;;;;;;27.30;18.07;;;;;;;12.01;100.00;99743.92;1710494;82;21179;-69
2021/11/22 05:19:30;;;;;;;23.87;15.70;;;;;;;11.04;100.00;99757.88;1711315;82;21769;-67
2021/11/22 05:21:59;;;;;;;25.83;16.80;;;;;;;10.79;100.00;99756.31;1709896;83;21864;-64
2021/11/22 05:24:27;;;;;;;23.70;16.30;;;;;;;10.92;100.00;99768.59;1705579;82;22279;-62
2021/11/22 05:26:54;;;;;;;27.00;18.23;;;;;;;10.34;100.00;99771.60;1712538;82;21277;-65
2021/11/22 05:29:21;;;;;;;24.50;17.10;;;;;;;10.50;100.00;99776.98;1705764;82;21282;-61
2021/11/22 05:31:49;;;;;;;24.97;17.50;;;;;;;10.53;100.00;99774.47;1709408;82;21133;-61
2021/11/22 05:34:18;;;;;;;25.00;18.00;;;;;;;10.82;100.00;99779.39;1709340;82;21830;-64
2021/11/22 05:36:46;;;;;;;23.50;17.33;;;;;;;10.78;100.00;99786.50;1709223;82;21316;-67
2021/11/22 05:39:13;;;;;;;26.03;17.93;;;;;;;10.61;100.00;99791.27;1710358;83;21129;-61
2021/11/22 05:41:40;;;;;;;29.20;19.23;;;;;;;10.68;100.00;99784.25;1710030;82;21316;-72
2021/11/22 05:44:08;;;;;;;28.57;20.10;;;;;;;11.13;100.00;99786.68;1709687;83;21340;-64
2021/11/22 05:46:35;;;;;;;27.40;19.10;;;;;;;11.34;100.00;99781.81;1711107;82;21303;-62
2021/11/22 05:49:02;;;;;;;27.03;18.77;;;;;;;11.53;100.00;99785.44;1709762;83;21223;-64
2021/11/22 05:51:29;;;;;;;27.67;18.80;;;;;;;11.59;100.00;99782.03;1709261;83;21144;-62
2021/11/22 05:53:58;;;;;;;26.50;18.63;;;;;;;11.54;100.00;99784.42;1711613;81;21197;-64
2021/11/22 05:56:25;;;;;;;26.10;17.73;;;;;;;11.56;100.00;99780.33;1709795;83;21908;-64
2021/11/22 05:58:53;;;;;;;29.40;19.47;;;;;;;11.85;100.00;99781.22;1711215;83;21273;-67
2021/11/22 06:01:20;;;;;;;28.60;19.70;;;;;;;11.97;100.00;99777.98;1710213;83;21086;-63
2021/11/22 06:03:47;;;;;;;27.67;19.17;;;;;;;12.31;100.00;99782.96;1711898;81;22281;-73
2021/11/22 06:06:14;;;;;;;26.43;19.10;;;;;;;11.69;100.00;99790.75;1714094;81;21828;-64
2021/11/22 06:08:42;;;;;;;25.50;18.60;;;;;;;12.04;100.00;99782.70;1727002;81;21657;-63
2021/11/22 06:11:10;;;;;;;25.87;17.87;;;;;;;12.37;100.00;99782.12;1711378;81;21307;-63
2021/11/22 06:13:37;;;;;;;25.77;18.50;;;;;;;12.59;100.00;99783.16;1701610;83;22851;-66
2021/11/22 06:16:05;;;;;;;26.33;19.40;;;;;;;12.71;100.00;99791.15;1706340;82;21211;-63
2021/11/22 06:18:32;;;;;;;26.90;19.07;;;;;;;12.38;100.00;99788.94;1706801;83;21730;-62
2021/11/22 06:20:59;;;;;;;25.53;17.83;;;;;;;12.23;100.00;99799.34;1706324;82;21807;-72
2021/11/22 06:23:26;;;;;;;28.03;18.77;;;;;;;11.96;100.00;99798.09;1707144;82;22319;-62
2021/11/22 06:25:54;;;;;;;24.17;17.07;;;;;;;12.49;100.00;99798.47;1705851;83;21804;-69
2021/11/22 06:28:21;;;;;;;26.83;17.47;;;;;;;12.24;100.00;99802.28;1707272;82;21891;-63
2021/11/22 06:30:50;;;;;;;24.37;18.60;;;;;;;12.10;100.00;99808.02;1706659;82;21227;-73
2021/11/22 06:33:18;;;;;;;24.23;17.67;;;;;;;12.47;100.00;99802.61;1707321;82;21739;-63
2021/11/22 06:35:46;;;;;;;27.10;18.17;;;;;;;12.69;100.00;99805.75;1706105;83;21454;-73
2021/11/22 06:38:14;;;;;;;26.03;18.63;;;;;;;12.63;100.00;99807.88;1706668;83;21262;-61
2021/11/22 06:40:41;;;;;;;26.40;18.33;;;;;;;13.16;100.00;99806.31;1706416;83;21050;-65
2021/11/22 06:43:08;;;;;;;24.47;16.87;;;;;;;13.67;100.00;99805.88;1706571;82;21085;-64
2021/11/22 06:45:35;;;;;;;23.70;16.30;;;;;;;12.88;100.00;99807.47;1705821;83;21385;-69
2021/11/22 06:48:04;;;;;;;25.07;17.37;;;;;;;12.88;100.00;99817.94;1706231;83;21068;-62
2021/11/22 06:50:31;;;;;;;23.77;16.83;;;;;;;13.20;100.00;99817.95;1706558;83;21197;-61
2021/11/22 06:52:58;;;;;;;26.13;18.20;;;;;;;13.17;100.00;99811.03;1710020;82;21055;-62
2021/11/22 06:55:26;;;;;;;21.90;17.40;;;;;;;12.95;100.00;99818.39;1708240;82;21286;-70
2021/11/22 06:57:53;;;;;;;23.90;16.57;;;;;;;13.14;100.00;99817.48;1706060;83;21174;-61
2021/11/22 07:00:21;;;;;;;22.27;16.10;;;;;;;13.44;100.00;99812.48;1707032;82;21285;-61
2021/11/22 07:02:51;;;;;;;21.73;17.10;;;;;;;13.04;100.00;99815.84;1708804;83;21283;-62
2021/11/22 07:05:19;;;;;;;21.87;16.47;;;;;;;13.23;100.00;99816.27;1710840;82;21238;-61
2021/11/22 07:07:48;;;;;;;25.60;17.37;;;;;;;13.92;100.00;99818.45;1710384;83;21126;-61
2021/11/22 07:10:15;;;;;;;23.70;16.53;;;;;;;13.58;100.00;99817.92;1711264;82;21262;-64
2021/11/22 07:12:42;;;;;;;23.40;16.77;;;;;;;12.87;100.00;99828.08;1711346;82;21340;-62
2021/11/22 07:15:10;;;;;;;25.27;16.73;;;;;;;12.75;100.00;99836.29;1711402;82;21528;-69
2021/11/22 07:17:38;;;;;;;26.37;16.77;;;;;;;13.35;100.00;99817.19;1701523;83;21361;-62
2021/11/22 07:20:07;;;;;;;24.87;16.83;;;;;;;13.07;100.00;99829.31;1710967;83;21317;-61
2021/11/22 07:22:34;;;;;;;21.67;16.57;;;;;;;12.95;100.00;99827.55;1710185;82;21248;-61
2021/11/22 07:25:01;;;;;;;23.30;16.70;;;;;;;12.66;100.00;99823.16;1710711;83;21333;-63
2021/11/22 07:27:29;;;;;;;21.77;17.13;;;;;;;12.82;100.00;99822.68;1711359;82;21136;-69
2021/11/22 07:29:56;;;;;;;23.43;16.77;;;;;;;13.10;100.00;99813.68;1708682;82;21468;-62
2021/11/22 07:32:26;;;;;;;23.67;17.30;;;;;;;12.86;100.00;99822.56;1710537;83;21653;-63
2021/11/22 07:34:53;;;;;;;23.07;16.37;;;;;;;12.93;100.00;99831.70;1711350;82;21763;-62
2021/11/22 07:37:21;;;;;;;24.17;17.17;;;;;;;13.56;100.00;99825.21;1710332;82;21729;-67
2021/11/22 07:39:48;;;;;;;22.97;16.87;;;;;;;13.66;100.00;99826.54;1712186;82;21381;-62
2021/11/22 07:42:15;;;;;;;23.73;16.63;;;;;;;13.99;100.00;99822.34;1711361;83;21224;-62
2021/11/22 07:44:44;;;;;;;21.43;16.90;;;;;;;13.84;100.00;99817.42;1710608;83;21302;-60
2021/11/22 07:47:11;;;;;;;21.83;16.77;;;;;;;13.79;100.00;99823.31;1710452;83;21158;-67
2021/11/22 07:49:38;;;;;;;22.57;17.17;;;;;;;13.75;100.00;99831.31;1701064;83;21406;-63
2021/11/22 07:52:06;;;;;;;23.90;17.13;;;;;;;13.75;100.00;99831.31;1711418;82;21325;-62
2021/11/22 07:54:46;;;;;;;23.75;17.30;;;;;;;13.94;100.00;99829.54;1677713;84;21266;-62
2021/11/22 07:57:14;;;;;;;20.37;16.77;;;;;;;13.86;100.00;99826.69;1677439;85;21091;-68
2021/11/22 07:59:41;;;;;;;23.10;17.77;;;;;;;14.72;100.00;99838.12;1695730;84;21454;-60
2021/11/22 08:02:08;;;;;;;20.90;17.03;;;;;;;14.72;100.00;99838.12;1675989;85;21503;-60
2021/11/22 08:04:36;;;;;;;23.37;17.20;;;;;;;14.29;100.00;99831.11;1695837;84;21305;-62
2021/11/22 08:07:10;;;;;;;24.20;17.33;;;;;;;14.53;100.00;99828.67;1675867;85;22625;-70
2021/11/22 08:09:34;;;;;;;22.83;17.13;;;;;;;14.52;100.00;99829.70;1696847;84;21655;-62
2021/11/22 08:14:39;;;;;;;26.00;19.63;;;;;;;14.55;100.00;99833.20;1694877;83;21311;-62
2021/11/22 08:17:07;;;;;;;23.27;18.13;;;;;;;14.40;100.00;99832.22;1676312;85;21181;-62
2021/11/22 08:19:36;;;;;;;23.17;18.37;;;;;;;14.30;100.00;99824.05;1660776;85;21875;-62
2021/11/22 08:22:03;;;;;;;27.47;19.40;;;;;;;14.30;100.00;99824.05;1664402;86;21247;-63
2021/11/22 08:24:31;;;;;;;25.57;18.53;;;;;;;14.42;100.00;99831.47;1663593;86;21316;-62
2021/11/22 08:26:58;;;;;;;23.60;17.77;;;;;;;14.86;100.00;99830.11;1664028;86;21277;-69
2021/11/22 08:29:25;;;;;;;25.83;18.07;;;;;;;15.19;100.00;99836.20;1662991;86;21691;-61
2021/11/22 08:31:53;;;;;;;23.70;18.63;;;;;;;15.16;100.00;99839.30;1664294;86;21167;-61
2021/11/22 08:34:22;;;;;;;25.33;19.50;;;;;;;15.16;100.00;99841.41;1680009;85;21748;-62
2021/11/22 08:36:49;;;;;;;23.63;19.03;;;;;;;15.03;100.00;99839.75;1680227;85;21436;-69
2021/11/22 08:39:17;;;;;;;23.13;19.03;;;;;;;14.95;100.00;99840.58;1678880;85;21454;-62
2021/11/22 08:41:45;;;;;;;25.70;19.13;;;;;;;14.70;100.00;99838.05;1676372;85;21329;-61
2021/11/22 08:44:13;;;;;;;24.47;19.00;;;;;;;15.21;100.00;99845.47;1660061;85;21293;-61
2021/11/22 08:46:41;;;;;;;23.60;18.60;;;;;;;15.21;100.00;99845.47;1645286;86;21453;-69
2021/11/22 08:49:08;;;;;;;21.20;16.97;;;;;;;15.19;100.00;99839.66;1667609;85;21440;-64
2021/11/22 08:51:36;;;;;;;24.60;18.43;;;;;;;15.30;100.00;99840.20;1675336;85;22049;-61
2021/11/22 08:54:03;;;;;;;23.20;19.00;;;;;;;15.53;100.00;99834.70;1675999;85;21181;-61
2021/11/22 08:56:31;;;;;;;25.10;18.73;;;;;;;15.28;100.00;99835.68;1676716;84;21511;-62
2021/11/22 08:59:00;;;;;;;22.93;18.07;;;;;;;15.89;100.00;99835.59;1670203;84;21800;-68
2021/11/22 09:01:27;;;;;;;25.97;19.93;;;;;;;15.91;99.44;99842.23;1668861;85;21338;-61
2021/11/22 09:03:55;;;;;;;23.70;18.97;;;;;;;15.98;97.26;99846.04;1637899;85;21439;-63
2021/11/22 09:06:23;;;;;;;24.97;19.27;;;;;;;15.46;100.00;99848.47;1670431;85;21247;-61
2021/11/22 09:08:50;;;;;;;23.33;18.30;;;;;;;15.46;100.00;99848.47;1670587;85;21423;-63
2021/11/22 09:11:19;;;;;;;24.13;18.43;;;;;;;15.29;100.00;99849.09;1669665;85;21364;-65
2021/11/22 09:13:46;;;;;;;26.07;18.97;;;;;;;15.29;100.00;99849.09;1669903;85;21430;-63
2021/11/22 09:16:14;;;;;;;22.30;17.57;;;;;;;15.71;100.00;99850.42;1669967;85;21489;-62
2021/11/22 09:18:43;;;;;;;25.93;18.70;;;;;;;14.10;100.00;99855.70;1667791;84;21487;-63
2021/11/22 09:21:10;;;;;;;22.13;18.40;;;;;;;14.31;100.00;99862.34;1657044;85;21447;-70
2021/11/22 09:23:37;;;;;;;25.93;20.67;;;;;;;14.89;100.00;99862.44;1692327;83;21513;-63
2021/11/22 09:26:04;;;;;;;22.30;17.87;;;;;;;14.89;100.00;99862.44;1663848;85;21481;-63
2021/11/22 09:28:34;;;;;;;23.63;18.57;;;;;;;14.94;100.00;99857.35;1659898;85;21199;-63
2021/11/22 09:31:01;;;;;;;24.30;19.10;;;;;;;14.58;100.00;99853.72;1693525;84;21543;-70
2021/11/22 09:33:28;;;;;;;25.20;18.63;;;;;;;14.80;100.00;99861.44;1741520;82;21382;-62
2021/11/22 09:35:56;;;;;;;23.17;18.03;;;;;;;15.17;100.00;99860.07;1742623;82;21398;-62
2021/11/22 09:38:24;;;;;;;23.10;17.77;;;;;;;15.36;100.00;99866.59;1743135;82;21965;-61
2021/11/22 09:40:51;;;;;;;24.50;17.87;;;;;;;15.36;100.00;99866.59;1744033;82;21429;-67
2021/11/22 09:43:18;;;;;;;25.23;18.97;;;;;;;15.45;100.00;99859.47;1742560;82;21652;-62
2021/11/22 09:45:47;;;;;;;23.70;18.10;;;;;;;15.45;100.00;99859.47;1744117;82;21485;-61
2021/11/22 09:48:14;;;;;;;21.93;18.00;;;;;;;15.51;100.00;99863.03;1743799;81;21633;-62
2021/11/22 09:50:41;;;;;;;22.77;17.77;;;;;;;15.51;100.00;99863.03;1744302;82;22155;-61
2021/11/22 09:53:09;;;;;;;23.87;18.53;;;;;;;15.44;100.00;99868.89;1742323;82;21527;-71
2021/11/22 09:55:36;;;;;;;22.40;17.80;;;;;;;15.24;100.00;99868.66;1726546;82;21497;-65
2021/11/22 09:58:07;;;;;;;19.87;16.57;;;;;;;15.30;100.00;99861.22;1724446;82;21946;-63
2021/11/22 10:00:44;;;;;;;26.20;19.00;;;;;;;15.66;100.00;99864.76;1726537;82;21825;-63
2021/11/22 10:03:23;;;;;;;26.10;21.17;;;;;;;15.95;99.74;99860.45;1726271;82;21047;-64
2021/11/22 10:05:56;;;;;;;24.97;19.13;;;;;;;15.83;100.00;99866.72;1729064;82;22441;-61
2021/11/22 10:08:23;;;;;;;25.23;20.43;;;;;;;15.83;100.00;99866.72;1724749;81;21535;-68
2021/11/22 10:10:56;;;;;;;23.57;18.87;;;;;;;16.00;97.66;99867.66;1725774;82;21038;-70
2021/11/22 10:13:41;;;;;;;22.70;19.47;;;;;;;15.81;100.00;99858.55;1725458;82;21925;-63
2021/11/22 10:16:20;;;;;;;24.57;18.23;;;;;;;15.81;100.00;99858.55;1720981;82;22013;-69
2021/11/22 10:18:59;;;;;;;23.77;19.37;;;;;;;15.96;96.61;99919.88;1720532;82;21658;-62
2021/11/22 10:21:35;;;;;;;23.80;18.90;;;;;;;15.64;99.40;99869.39;1723609;82;21691;-62
2021/11/22 10:24:08;;;;;;;24.60;19.47;;;;;;;15.45;100.00;99873.91;1725186;81;21301;-72
2021/11/22 10:26:49;;;;;;;25.73;20.10;;;;;;;15.82;98.79;99875.12;1723053;82;21976;-63
2021/11/22 10:29:31;;;;;;;26.82;21.57;;;;;;;15.96;96.97;99866.52;1721064;82;22263;-67
2021/11/22 10:32:01;;;;;;;28.05;22.02;;;;;;;15.54;100.00;99874.41;1729164;82;21127;-64
2021/11/22 10:34:35;;;;;;;27.93;21.33;;;;;;;15.30;100.00;99875.66;1726544;82;22107;-63
2021/11/22 10:37:05;;;;;;;25.50;19.93;;;;;;;15.89;100.00;99869.77;1730975;82;21346;-65
2021/11/22 10:39:32;;;;;;;27.77;20.87;;;;;;;15.93;98.43;99875.64;1727103;82;21587;-68
2021/11/22 10:42:00;;;;;;;24.93;20.23;;;;;;;16.09;94.83;99877.31;1725399;82;21784;-61
2021/11/22 10:44:32;;;;;;;27.13;20.43;;;;;;;15.42;100.00;99893.25;1725023;82;21553;-64
2021/11/22 10:47:11;;;;;;;23.60;17.82;;;;;;;15.31;100.00;99877.25;1725710;82;22033;-74
2021/11/22 10:49:42;;;;;;;25.47;19.27;;;;;;;15.70;100.00;99872.47;1732994;82;21151;-65
2021/11/22 10:52:13;;;;;;;25.40;20.10;;;;;;;15.81;100.00;99875.63;1732087;81;21518;-65
2021/11/22 10:55:00;;;;;;;28.77;20.23;;;;;;;13.70;100.00;99878.79;1709686;82;21613;-76
2021/11/22 10:57:44;;;;;;;23.23;18.57;;;;;;;13.70;100.00;99878.79;1715716;83;21796;-68
2021/11/22 11:00:24;;;;;;;25.63;19.13;;;;;;;14.78;100.00;99879.75;1697876;82;21195;-82
2021/11/22 11:02:52;;;;;;;26.57;19.00;;;;;;;14.78;100.00;99879.75;1699108;82;22931;-65
2021/11/22 11:05:37;;;;;;;24.30;17.87;;;;;;;14.85;100.00;99879.16;1702086;82;21516;-65
2021/11/22 11:08:09;;;;;;;25.20;18.20;;;;;;;14.99;100.00;99885.04;1704950;83;21958;-65
2021/11/22 11:10:37;;;;;;;28.10;18.50;;;;;;;15.86;100.00;99884.66;1717792;82;22003;-62
2021/11/22 11:13:04;;;;;;;31.70;20.57;;;;;;;15.86;100.00;99884.66;1714673;83;21599;-65
2021/11/22 11:15:32;;;;;;;27.63;18.97;;;;;;;15.92;99.69;99975.77;1700424;83;21584;-66
2021/11/22 11:18:01;;;;;;;28.07;18.37;;;;;;;15.39;100.00;99892.41;1715312;82;21825;-67
2021/11/22 11:20:29;;;;;;;28.53;19.90;;;;;;;15.77;100.00;99891.57;1709365;83;21584;-66